createdAt,value
2022-10-23T00:01:43.857Z,27.40
2022-10-23T00:04:21.571Z,27.13
2022-10-23T00:06:49.519Z,30.77
2022-10-23T00:09:20.244Z,26.80
2022-10-23T00:11:50.039Z,33.63
2022-10-23T00:14:21.444Z,32.38
2022-10-23T00:16:48.552Z,32.38
2022-10-23T00:19:16.224Z,31.23
2022-10-23T00:21:43.480Z,39.55
2022-10-23T00:24:10.716Z,32.80
2022-10-23T00:26:40.569Z,31.73
2022-10-23T00:29:09.815Z,36.83
2022-10-23T00:31:38.105Z,37.05
2022-10-23T00:34:08.492Z,38.38
2022-10-23T00:36:36.979Z,30.48
2022-10-23T00:39:05.692Z,30.60
2022-10-23T00:41:32.992Z,33.70
2022-10-23T00:44:30.832Z,29.50
2022-10-23T00:46:59.299Z,28.40
2022-10-23T00:49:28.351Z,30.80
2022-10-23T00:52:04.584Z,33.33
2022-10-23T00:54:43.560Z,28.85
2022-10-23T00:57:15.581Z,32.08
2022-10-23T00:59:42.968Z,24.45
2022-10-23T01:02:10.513Z,25.55
2022-10-23T01:04:38.123Z,25.50
2022-10-23T01:07:30.736Z,33.58
2022-10-23T01:10:07.909Z,33.08
2022-10-23T01:13:21.070Z,31.23
2022-10-23T01:16:06.065Z,28.95
2022-10-23T01:18:53.560Z,27.58
2022-10-23T01:21:48.110Z,36.78
2022-10-23T01:24:34.072Z,30.90
2022-10-23T01:27:13.167Z,28.35
2022-10-23T01:30:13.733Z,37.97
2022-10-23T01:33:06.923Z,34.60
2022-10-23T01:35:45.973Z,34.33
2022-10-23T01:38:57.655Z,32.20
2022-10-23T01:41:50.527Z,39.83
2022-10-23T01:44:37.967Z,29.65
2022-10-23T01:47:08.947Z,31.58
2022-10-23T01:49:39.578Z,32.28
2022-10-23T01:52:11.935Z,35.03
2022-10-23T01:54:44.137Z,31.92
2022-10-23T02:00:07.031Z,33.85
2022-10-23T02:02:36.365Z,24.42
2022-10-23T02:05:14.190Z,26.83
2022-10-23T02:07:41.767Z,26.50
2022-10-23T02:10:10.696Z,26.52
2022-10-23T02:13:03.555Z,31.10
2022-10-23T02:15:41.049Z,26.40
2022-10-23T02:18:26.723Z,30.75
2022-10-23T02:21:14.029Z,26.23
2022-10-23T02:23:59.549Z,24.38
2022-10-23T02:26:47.057Z,28.38
2022-10-23T02:29:38.987Z,25.90
2022-10-23T02:32:09.937Z,26.25
2022-10-23T02:34:37.373Z,31.73
2022-10-23T02:37:04.620Z,24.40
2022-10-23T02:39:31.859Z,23.23
2022-10-23T02:42:36.433Z,26.10
2022-10-23T02:45:15.885Z,28.10
2022-10-23T02:48:19.067Z,30.77
2022-10-23T02:51:24.443Z,25.20
2022-10-23T02:54:05.475Z,27.60
2022-10-23T02:56:41.378Z,25.40
2022-10-23T02:59:52.574Z,23.80
2022-10-23T03:04:58.806Z,21.80
2022-10-23T03:07:27.134Z,20.73
2022-10-23T03:09:54.197Z,20.75
2022-10-23T03:12:21.287Z,22.65
2022-10-23T03:14:48.327Z,20.60
2022-10-23T03:17:15.449Z,27.75
2022-10-23T03:19:44.641Z,19.52
2022-10-23T03:22:11.698Z,19.60
2022-10-23T03:24:38.753Z,18.38
2022-10-23T03:27:08.225Z,25.67
2022-10-23T03:29:38.239Z,21.42
2022-10-23T03:32:05.640Z,19.05
2022-10-23T03:34:32.845Z,20.58
2022-10-23T03:36:59.893Z,18.10
2022-10-23T03:39:27.021Z,18.02
2022-10-23T03:41:54.100Z,25.67
2022-10-23T03:44:21.170Z,23.92
2022-10-23T03:46:48.286Z,20.70
2022-10-23T03:49:15.476Z,19.38
2022-10-23T03:51:44.061Z,20.10
2022-10-23T03:54:11.446Z,19.50
2022-10-23T03:56:38.478Z,22.60
2022-10-23T03:59:05.521Z,20.90
2022-10-23T04:01:32.977Z,19.77
2022-10-23T04:04:00.291Z,23.63
2022-10-23T04:06:27.348Z,19.00
2022-10-23T04:08:54.682Z,19.73
2022-10-23T04:11:21.743Z,21.15
2022-10-23T04:13:48.853Z,22.30
2022-10-23T04:16:17.202Z,21.05
2022-10-23T04:18:44.290Z,22.05
2022-10-23T04:21:12.041Z,27.55
2022-10-23T04:23:41.942Z,23.92
2022-10-23T04:26:11.910Z,26.33
2022-10-23T04:28:39.080Z,25.30
2022-10-23T04:31:07.141Z,21.00
2022-10-23T04:33:34.342Z,21.20
2022-10-23T04:36:04.052Z,20.25
2022-10-23T04:38:31.123Z,20.00
2022-10-23T04:40:58.204Z,20.45
2022-10-23T04:43:25.267Z,19.33
2022-10-23T04:45:52.432Z,20.48
2022-10-23T04:48:19.846Z,21.05
2022-10-23T04:50:59.353Z,24.35
2022-10-23T04:53:28.097Z,21.38
2022-10-23T04:55:57.742Z,22.52
2022-10-23T04:58:26.967Z,22.90
2022-10-23T05:00:54.384Z,18.50
2022-10-23T05:03:22.948Z,19.50
2022-10-23T05:05:54.542Z,18.25
2022-10-23T05:08:24.812Z,23.38
2022-10-23T05:10:52.059Z,19.33
2022-10-23T05:13:22.333Z,20.10
2022-10-23T05:15:51.975Z,21.30
2022-10-23T05:18:28.885Z,18.25
2022-10-23T05:21:10.261Z,21.65
2022-10-23T05:23:38.663Z,19.88
2022-10-23T05:26:05.774Z,21.33
2022-10-23T05:28:32.785Z,20.25
2022-10-23T05:31:03.782Z,21.17
2022-10-23T05:33:31.839Z,20.15
2022-10-23T05:36:00.362Z,22.38
2022-10-23T05:38:29.640Z,18.85
2022-10-23T05:40:56.687Z,20.80
2022-10-23T05:43:23.872Z,17.83
2022-10-23T05:45:50.900Z,17.45
2022-10-23T05:48:30.010Z,19.25
2022-10-23T05:51:11.010Z,21.92
2022-10-23T05:53:40.349Z,21.77
2022-10-23T05:56:09.821Z,21.17
2022-10-23T05:58:36.977Z,20.92
2022-10-23T06:01:13.685Z,25.85
2022-10-23T06:03:40.987Z,21.08
2022-10-23T06:06:08.471Z,21.20
2022-10-23T06:08:36.137Z,26.00
2022-10-23T06:11:15.223Z,20.05
2022-10-23T06:16:28.958Z,27.38
2022-10-23T06:18:57.486Z,26.70
2022-10-23T06:21:24.871Z,27.52
2022-10-23T06:23:52.245Z,26.67
2022-10-23T06:26:20.307Z,28.90
2022-10-23T06:28:47.388Z,29.48
2022-10-23T06:31:16.619Z,29.45
2022-10-23T06:33:43.646Z,28.00
2022-10-23T06:36:10.958Z,26.02
2022-10-23T06:38:40.888Z,27.30
2022-10-23T06:41:21.601Z,27.05
2022-10-23T06:43:51.115Z,25.30
2022-10-23T06:46:19.306Z,26.35
2022-10-23T06:48:46.848Z,25.52
2022-10-23T06:51:17.257Z,30.08
2022-10-23T06:53:46.030Z,23.35
2022-10-23T06:56:15.758Z,25.67
2022-10-23T06:58:42.899Z,24.10
2022-10-23T07:01:13.199Z,24.30
2022-10-23T07:03:40.398Z,22.30
2022-10-23T07:06:10.283Z,28.27
2022-10-23T07:08:38.333Z,20.58
2022-10-23T07:11:10.806Z,22.63
2022-10-23T07:13:39.334Z,21.40
2022-10-23T07:16:19.311Z,18.95
2022-10-23T07:18:48.454Z,26.85
2022-10-23T07:21:15.951Z,26.00
2022-10-23T07:23:43.016Z,23.75
2022-10-23T07:26:17.766Z,27.52
2022-10-23T07:28:48.121Z,19.60
2022-10-23T07:31:16.239Z,22.20
2022-10-23T07:33:43.395Z,19.33
2022-10-23T07:36:10.777Z,19.88
2022-10-23T07:38:37.885Z,23.50
2022-10-23T07:41:08.875Z,27.55
2022-10-23T07:43:39.385Z,21.60
2022-10-23T07:46:08.489Z,19.50
2022-10-23T07:48:37.900Z,20.00
2022-10-23T07:51:14.896Z,24.00
2022-10-23T07:53:42.973Z,20.88
2022-10-23T07:56:29.980Z,22.80
2022-10-23T07:58:59.990Z,26.85
2022-10-23T08:01:34.717Z,22.42
2022-10-23T08:04:01.842Z,22.40
2022-10-23T08:06:29.443Z,27.70
2022-10-23T08:08:56.491Z,22.90
2022-10-23T08:11:28.042Z,24.15
2022-10-23T08:13:57.078Z,27.02
2022-10-23T08:16:28.204Z,24.52
2022-10-23T08:18:55.248Z,24.45
2022-10-23T08:21:22.299Z,22.73
2022-10-23T08:23:49.358Z,23.25
2022-10-23T08:26:16.537Z,21.98
2022-10-23T08:28:43.618Z,28.00
2022-10-23T08:31:19.250Z,26.00
2022-10-23T08:33:46.941Z,23.90
2022-10-23T08:36:25.689Z,18.02
2022-10-23T08:38:55.235Z,26.33
2022-10-23T08:41:32.694Z,25.88
2022-10-23T08:44:31.553Z,20.45
2022-10-23T08:47:12.601Z,15.75
2022-10-23T08:49:44.365Z,16.40
2022-10-23T08:52:36.727Z,15.20
2022-10-23T08:55:45.085Z,12.60
2022-10-23T08:58:42.717Z,16.25
2022-10-23T09:01:46.477Z,15.35
2022-10-23T09:04:15.357Z,20.15
2022-10-23T09:06:48.089Z,21.55
2022-10-23T09:10:12.202Z,22.20
2022-10-23T09:12:39.895Z,20.20
2022-10-23T09:15:35.236Z,23.52
2022-10-23T09:18:17.409Z,18.40
2022-10-23T09:20:47.639Z,18.85
2022-10-23T09:23:23.332Z,16.90
2022-10-23T09:26:01.995Z,16.48
2022-10-23T09:28:36.308Z,14.68
2022-10-23T09:31:12.546Z,15.63
2022-10-23T09:33:43.509Z,21.38
2022-10-23T09:36:13.942Z,16.25
2022-10-23T09:38:46.683Z,12.27
2022-10-23T09:41:24.677Z,13.35
2022-10-23T09:44:21.154Z,16.40
2022-10-23T09:46:57.329Z,15.32
2022-10-23T09:49:30.716Z,10.43
2022-10-23T09:52:03.760Z,12.60
2022-10-23T09:54:39.808Z,13.43
2022-10-23T09:57:22.031Z,16.25
2022-10-23T10:02:37.549Z,13.25
2022-10-23T10:05:34.063Z,11.07
2022-10-23T10:08:06.118Z,13.38
2022-10-23T10:13:39.598Z,11.25
2022-10-23T10:16:07.770Z,14.77
2022-10-23T10:19:06.119Z,15.43
2022-10-23T10:21:54.100Z,18.05
2022-10-23T10:24:55.901Z,10.48
2022-10-23T10:28:02.388Z,9.77
2022-10-23T10:31:19.607Z,13.48
2022-10-23T10:34:37.589Z,15.10
2022-10-23T10:37:56.730Z,11.45
2022-10-23T10:40:51.865Z,15.40
2022-10-23T10:44:01.681Z,10.00
2022-10-23T10:47:03.385Z,10.80
2022-10-23T10:49:42.898Z,11.27
2022-10-23T10:52:57.331Z,9.93
2022-10-23T10:55:41.401Z,9.07
2022-10-23T10:59:07.063Z,11.13
2022-10-23T11:02:09.936Z,9.48
2022-10-23T11:04:51.233Z,12.55
2022-10-23T11:07:30.881Z,8.43
2022-10-23T11:10:00.371Z,10.25
2022-10-23T11:12:28.321Z,8.85
2022-10-23T11:14:56.632Z,13.23
2022-10-23T11:17:39.240Z,7.25
2022-10-23T11:20:09.572Z,9.55
2022-10-23T11:23:05.512Z,10.45
2022-10-23T11:25:59.984Z,9.15
2022-10-23T11:28:32.890Z,10.05
2022-10-23T11:32:00.312Z,13.35
2022-10-23T11:34:39.731Z,12.52
2022-10-23T11:37:09.099Z,10.90
2022-10-23T11:39:40.276Z,11.45
2022-10-23T11:42:07.225Z,10.35
2022-10-23T11:44:50.489Z,9.70
2022-10-23T11:47:40.581Z,10.73
2022-10-23T11:50:49.844Z,10.63
2022-10-23T11:53:45.603Z,11.70
2022-10-23T11:56:12.558Z,12.02
2022-10-23T11:58:50.720Z,9.65
2022-10-23T12:01:53.159Z,10.75
2022-10-23T12:04:39.520Z,8.88
2022-10-23T12:07:25.622Z,12.45
2022-10-23T12:10:00.781Z,11.45
2022-10-23T12:12:43.247Z,14.07
2022-10-23T12:15:15.803Z,10.50
2022-10-23T12:17:44.278Z,10.75
2022-10-23T12:20:11.571Z,13.18
2022-10-23T12:23:12.822Z,11.95
2022-10-23T12:26:12.800Z,8.90
2022-10-23T12:29:11.244Z,11.13
2022-10-23T12:31:55.147Z,10.45
2022-10-23T12:34:43.980Z,11.80
2022-10-23T12:37:56.005Z,13.95
2022-10-23T12:40:29.805Z,12.57
2022-10-23T12:43:00.243Z,13.13
2022-10-23T12:45:40.669Z,10.05
2022-10-23T12:48:19.958Z,10.02
2022-10-23T12:50:53.113Z,12.55
2022-10-23T12:53:24.394Z,7.68
2022-10-23T12:56:05.164Z,8.75
2022-10-23T12:58:35.213Z,8.73
2022-10-23T13:01:06.096Z,11.45
2022-10-23T13:03:34.338Z,9.50
2022-10-23T13:06:03.171Z,8.60
2022-10-23T13:08:45.994Z,7.25
2022-10-23T13:11:18.743Z,11.93
2022-10-23T13:13:46.149Z,12.50
2022-10-23T13:16:22.572Z,9.15
2022-10-23T13:18:50.182Z,9.00
2022-10-23T13:21:28.787Z,10.45
2022-10-23T13:23:56.448Z,11.35
2022-10-23T13:26:42.794Z,9.93
2022-10-23T13:29:33.696Z,14.52
2022-10-23T13:32:26.742Z,12.18
2022-10-23T13:35:04.049Z,9.68
2022-10-23T13:37:40.677Z,10.98
2022-10-23T13:40:24.997Z,9.55
2022-10-23T13:42:55.167Z,8.93
2022-10-23T13:45:25.782Z,7.90
2022-10-23T13:47:53.443Z,9.05
2022-10-23T13:50:23.067Z,9.23
2022-10-23T13:52:54.580Z,16.33
2022-10-23T13:55:28.330Z,9.02
2022-10-23T13:58:04.554Z,9.13
2022-10-23T14:00:31.662Z,10.82
2022-10-23T14:03:01.013Z,9.48
2022-10-23T14:05:28.062Z,9.25
2022-10-23T14:07:55.124Z,8.10
2022-10-23T14:10:25.645Z,12.07
2022-10-23T14:12:55.320Z,10.73
2022-10-23T14:15:22.964Z,9.35
2022-10-23T14:17:50.159Z,12.25
2022-10-23T14:20:19.121Z,13.55
2022-10-23T14:22:47.199Z,12.65
2022-10-23T14:25:14.477Z,12.30
2022-10-23T14:27:43.829Z,13.60
2022-10-23T14:30:11.646Z,13.75
2022-10-23T14:32:41.113Z,16.63
2022-10-23T14:35:10.933Z,13.93
2022-10-23T14:37:40.547Z,15.15
2022-10-23T14:40:08.565Z,16.92
2022-10-23T14:42:35.716Z,14.55
2022-10-23T14:45:08.561Z,19.10
2022-10-23T14:47:35.787Z,17.55
2022-10-23T14:50:03.160Z,13.48
2022-10-23T14:52:30.376Z,15.80
2022-10-23T14:54:57.541Z,14.23
2022-10-23T14:57:24.769Z,16.02
2022-10-23T14:59:51.847Z,17.05
2022-10-23T15:02:19.076Z,20.00
2022-10-23T15:04:46.173Z,17.17
2022-10-23T15:07:13.261Z,17.67
2022-10-23T15:09:40.348Z,25.85
2022-10-23T15:12:07.962Z,20.92
2022-10-23T15:14:35.493Z,19.17
2022-10-23T15:17:03.037Z,20.75
2022-10-23T15:19:30.266Z,19.23
2022-10-23T15:21:58.982Z,19.58
2022-10-23T15:24:26.787Z,22.83
2022-10-23T15:26:53.923Z,30.15
2022-10-23T15:29:21.293Z,30.35
2022-10-23T15:31:59.485Z,36.20
2022-10-23T15:34:29.431Z,32.47
2022-10-23T15:36:59.714Z,34.28
2022-10-23T15:39:33.877Z,42.25
2022-10-23T15:42:02.428Z,47.13
2022-10-23T15:44:31.891Z,56.75
2022-10-23T15:47:01.891Z,50.97
2022-10-23T15:49:29.672Z,49.45
2022-10-23T15:51:57.446Z,42.38
2022-10-23T15:54:27.012Z,35.35
2022-10-23T15:56:59.101Z,44.20
2022-10-23T15:59:26.538Z,46.03
2022-10-23T16:01:54.099Z,49.53
2022-10-23T16:04:21.531Z,53.60
2022-10-23T16:06:49.363Z,47.35
2022-10-23T16:09:17.139Z,41.35
2022-10-23T16:11:44.789Z,52.40
2022-10-23T16:14:17.477Z,48.28
2022-10-23T16:16:44.958Z,45.42
2022-10-23T16:19:14.784Z,50.85
2022-10-23T16:21:42.173Z,41.53
2022-10-23T16:24:10.012Z,47.25
2022-10-23T16:26:38.233Z,37.10
2022-10-23T16:31:42.119Z,38.20
2022-10-23T16:34:10.411Z,37.92
2022-10-23T16:36:40.607Z,35.17
2022-10-23T16:39:16.122Z,38.50
2022-10-23T16:41:43.173Z,40.53
2022-10-23T16:44:10.223Z,36.55
2022-10-23T16:46:38.970Z,34.67
2022-10-23T16:49:08.166Z,43.05
2022-10-23T16:51:35.626Z,40.92
2022-10-23T16:54:05.006Z,36.50
2022-10-23T16:56:32.274Z,37.35
2022-10-23T16:59:02.398Z,36.42
2022-10-23T17:01:31.680Z,36.72
2022-10-23T17:03:59.469Z,37.22
2022-10-23T17:06:32.873Z,39.75
2022-10-23T17:09:01.971Z,37.30
2022-10-23T17:11:37.337Z,34.15
2022-10-23T17:14:15.438Z,32.90
2022-10-23T17:16:47.443Z,38.17
2022-10-23T17:19:33.052Z,36.67
2022-10-23T17:22:10.661Z,43.95
2022-10-23T17:24:40.156Z,40.03
2022-10-23T17:27:07.365Z,35.60
2022-10-23T17:29:35.225Z,44.88
2022-10-23T17:32:02.779Z,44.53
2022-10-23T17:34:30.126Z,40.08
2022-10-23T17:37:02.238Z,42.45
2022-10-23T17:39:30.209Z,40.00
2022-10-23T17:42:00.150Z,41.53
2022-10-23T17:44:29.953Z,77.80
2022-10-23T17:46:57.112Z,88.05
2022-10-23T17:49:25.192Z,46.15
2022-10-23T17:51:55.970Z,43.17
2022-10-23T17:54:24.812Z,43.60
2022-10-23T17:56:51.887Z,50.53
2022-10-23T17:59:19.786Z,37.38
2022-10-23T18:01:48.713Z,46.08
2022-10-23T18:04:19.357Z,42.63
2022-10-23T18:06:53.199Z,50.03
2022-10-23T18:09:22.741Z,54.88
2022-10-23T18:11:52.873Z,49.50
2022-10-23T18:14:21.523Z,51.28
2022-10-23T18:16:52.554Z,51.17
2022-10-23T18:19:20.073Z,46.78
2022-10-23T18:21:48.193Z,88.32
2022-10-23T18:24:16.182Z,58.47
2022-10-23T18:26:43.610Z,67.57
2022-10-23T18:29:14.133Z,56.95
2022-10-23T18:31:41.823Z,100.97
2022-10-23T18:34:22.200Z,93.05
2022-10-23T18:36:51.706Z,53.90
2022-10-23T18:39:22.668Z,49.97
2022-10-23T18:41:55.024Z,50.45
2022-10-23T18:46:51.329Z,69.68
2022-10-23T18:49:22.508Z,61.65
2022-10-23T18:51:50.629Z,54.08
2022-10-23T18:54:19.744Z,59.67
2022-10-23T18:56:47.913Z,81.82
2022-10-23T18:59:20.153Z,73.55
2022-10-23T19:04:17.788Z,69.32
2022-10-23T19:06:46.838Z,89.97
2022-10-23T19:09:14.808Z,86.95
2022-10-23T19:11:43.480Z,77.32
2022-10-23T19:14:10.735Z,80.25
2022-10-23T19:17:04.618Z,89.15
2022-10-23T19:19:48.682Z,95.50
2022-10-23T19:22:17.723Z,114.53
2022-10-23T19:24:51.160Z,104.65
2022-10-23T19:27:19.426Z,103.78
2022-10-23T19:29:50.381Z,118.70
2022-10-23T19:32:17.814Z,114.75
2022-10-23T19:34:45.488Z,116.53
2022-10-23T19:39:45.617Z,116.15
2022-10-23T19:42:14.821Z,116.18
2022-10-23T19:44:41.902Z,124.35
2022-10-23T19:47:09.048Z,110.97
2022-10-23T19:49:36.132Z,104.85
2022-10-23T19:52:03.241Z,135.48
2022-10-23T19:54:31.415Z,114.55
2022-10-23T19:56:58.528Z,101.07
2022-10-23T19:59:25.601Z,85.22
2022-10-23T20:01:52.800Z,81.13
2022-10-23T20:04:20.109Z,92.53
2022-10-23T20:06:49.675Z,99.30
2022-10-23T20:09:17.059Z,93.15
2022-10-23T20:11:45.321Z,102.45
2022-10-23T20:14:13.530Z,107.93
2022-10-23T20:16:42.569Z,90.50
2022-10-23T20:19:15.206Z,98.45
2022-10-23T20:21:46.239Z,82.35
2022-10-23T20:24:16.425Z,84.55
2022-10-23T20:26:46.384Z,82.90
2022-10-23T20:29:14.157Z,75.97
2022-10-23T20:31:43.797Z,82.43
2022-10-23T20:34:12.382Z,85.03
2022-10-23T20:36:47.000Z,88.28
2022-10-23T20:39:26.940Z,75.38
2022-10-23T20:41:57.593Z,76.35
2022-10-23T20:44:29.507Z,74.70
2022-10-23T20:46:57.010Z,78.57
2022-10-23T20:49:24.641Z,70.43
2022-10-23T20:51:56.435Z,66.80
2022-10-23T20:54:28.922Z,61.90
2022-10-23T20:56:58.988Z,66.28
2022-10-23T20:59:26.545Z,65.03
2022-10-23T21:01:55.509Z,60.85
2022-10-23T21:04:27.545Z,67.25
2022-10-23T21:07:09.343Z,79.97
2022-10-23T21:09:38.292Z,76.07
2022-10-23T21:12:06.759Z,81.68
2022-10-23T21:14:35.101Z,88.75
2022-10-23T21:17:04.928Z,99.50
2022-10-23T21:19:32.228Z,87.72
2022-10-23T21:22:00.242Z,77.18
2022-10-23T21:24:27.489Z,54.03
2022-10-23T21:26:54.637Z,55.28
2022-10-23T21:29:22.084Z,49.55
2022-10-23T21:31:58.595Z,56.75
2022-10-23T21:34:26.936Z,57.00
2022-10-23T21:37:11.874Z,56.45
2022-10-23T21:39:40.208Z,50.35
2022-10-23T21:42:07.728Z,59.63
2022-10-23T21:44:35.160Z,65.07
2022-10-23T21:47:02.484Z,62.28
2022-10-23T21:49:32.708Z,58.47
2022-10-23T21:51:59.820Z,60.55
2022-10-23T21:54:26.970Z,55.60
2022-10-23T21:56:54.433Z,56.83
2022-10-23T21:59:29.081Z,58.90
2022-10-23T22:01:59.463Z,58.33
2022-10-23T22:04:26.834Z,53.97
2022-10-23T22:06:54.148Z,55.28
2022-10-23T22:09:22.187Z,44.63
2022-10-23T22:11:51.370Z,53.28
2022-10-23T22:14:22.172Z,44.53
2022-10-23T22:16:55.480Z,44.70
2022-10-23T22:19:23.623Z,42.65
2022-10-23T22:21:51.888Z,41.03
2022-10-23T22:24:19.467Z,42.40
2022-10-23T22:26:51.655Z,40.25
2022-10-23T22:31:52.820Z,37.25
2022-10-23T22:34:48.386Z,38.97
2022-10-23T22:37:14.925Z,40.03
2022-10-23T22:39:44.470Z,37.83
2022-10-23T22:42:11.958Z,37.97
2022-10-23T22:44:39.157Z,33.65
2022-10-23T22:47:08.740Z,35.05
2022-10-23T22:49:35.986Z,39.42
2022-10-23T22:52:03.189Z,34.83
2022-10-23T22:54:33.454Z,37.15
2022-10-23T22:57:00.636Z,36.47
2022-10-23T22:59:27.802Z,38.55
2022-10-23T23:01:55.314Z,45.88
2022-10-23T23:04:38.890Z,38.78
2022-10-23T23:07:09.855Z,37.53
2022-10-23T23:09:40.358Z,37.67
2022-10-23T23:12:10.483Z,32.28
2022-10-23T23:14:41.173Z,32.40
2022-10-23T23:17:09.440Z,33.90
2022-10-23T23:19:36.862Z,32.83
2022-10-23T23:22:04.057Z,34.55
2022-10-23T23:24:32.209Z,35.70
2022-10-23T23:26:59.299Z,33.00
2022-10-23T23:29:27.071Z,34.65
2022-10-23T23:31:54.213Z,35.55
2022-10-23T23:34:21.424Z,36.22
2022-10-23T23:36:48.614Z,29.17
2022-10-23T23:39:15.806Z,29.88
2022-10-23T23:41:45.275Z,29.20
2022-10-23T23:44:12.394Z,30.25
2022-10-23T23:46:39.603Z,40.92
2022-10-23T23:49:06.805Z,30.35
2022-10-23T23:51:33.875Z,33.08
2022-10-23T23:54:03.615Z,33.47
2022-10-23T23:56:32.030Z,35.05
2022-10-23T23:58:59.105Z,32.97
